createdAt,value
2018-04-08T00:00:17.673Z,27.50
2018-04-08T00:02:46.693Z,26.00
2018-04-08T00:05:15.744Z,27.03
2018-04-08T00:07:44.999Z,27.15
2018-04-08T00:10:14.028Z,27.87
2018-04-08T00:12:43.367Z,27.17
2018-04-08T00:15:12.611Z,27.48
2018-04-08T00:17:41.701Z,27.13
2018-04-08T00:20:10.982Z,26.87
2018-04-08T00:22:39.969Z,26.43
2018-04-08T00:25:09.232Z,27.07
2018-04-08T00:27:38.552Z,28.38
2018-04-08T00:30:07.793Z,27.23
2018-04-08T00:32:37.063Z,29.27
2018-04-08T00:35:06.401Z,27.10
2018-04-08T00:37:35.852Z,27.25
2018-04-08T00:40:04.967Z,27.08
2018-04-08T00:42:35.295Z,27.73
2018-04-08T00:45:04.426Z,26.10
2018-04-08T00:47:33.459Z,28.57
2018-04-08T00:50:02.577Z,28.45
2018-04-08T00:52:31.584Z,28.23
2018-04-08T00:55:00.600Z,33.57
2018-04-08T00:57:31.415Z,39.92
2018-04-08T01:00:02.127Z,39.12
2018-04-08T01:02:32.910Z,38.50
2018-04-08T01:05:03.796Z,36.90
2018-04-08T01:07:34.868Z,36.30
2018-04-08T01:10:04.718Z,37.22
2018-04-08T01:12:36.323Z,39.02
2018-04-08T01:15:06.945Z,40.47
2018-04-08T01:17:37.952Z,38.15
2018-04-08T01:20:08.809Z,37.55
2018-04-08T01:22:39.867Z,35.67
2018-04-08T01:25:10.985Z,35.50
2018-04-08T01:27:41.850Z,36.45
2018-04-08T01:30:13.274Z,31.86
2018-04-08T01:32:43.929Z,30.20
2018-04-08T01:35:14.809Z,30.15
2018-04-08T01:37:45.843Z,29.10
2018-04-08T01:40:17.445Z,30.26
2018-04-08T01:42:48.327Z,30.02
2018-04-08T01:45:18.892Z,28.50
2018-04-08T01:47:50.663Z,28.64
2018-04-08T01:50:20.321Z,27.25
2018-04-08T01:52:51.884Z,28.16
2018-04-08T01:55:21.749Z,25.42
2018-04-08T01:57:52.474Z,24.68
2018-04-08T02:00:23.062Z,24.27
2018-04-08T02:02:54.602Z,24.38
2018-04-08T02:05:25.327Z,23.87
2018-04-08T02:07:55.735Z,23.60
2018-04-08T02:10:26.423Z,22.73
2018-04-08T02:12:57.299Z,21.92
2018-04-08T02:15:28.008Z,24.70
2018-04-08T02:17:59.959Z,24.54
2018-04-08T02:20:30.487Z,24.20
2018-04-08T02:22:59.852Z,22.37
2018-04-08T02:25:30.699Z,21.20
2018-04-08T02:28:01.511Z,20.98
2018-04-08T02:30:32.147Z,22.25
2018-04-08T02:33:03.166Z,20.25
2018-04-08T02:35:34.742Z,19.76
2018-04-08T02:38:05.453Z,20.75
2018-04-08T02:40:36.328Z,20.92
2018-04-08T02:43:07.768Z,19.82
2018-04-08T02:45:39.459Z,21.96
2018-04-08T02:48:10.329Z,20.30
2018-04-08T02:50:40.133Z,19.25
2018-04-08T02:53:10.879Z,20.67
2018-04-08T02:55:40.377Z,19.87
2018-04-08T02:58:11.035Z,18.42
2018-04-08T03:00:42.588Z,17.80
2018-04-08T03:03:13.454Z,18.87
2018-04-08T03:05:44.193Z,17.00
2018-04-08T03:08:15.962Z,17.44
2018-04-08T03:10:46.824Z,18.08
2018-04-08T03:13:16.806Z,17.75
2018-04-08T03:15:47.862Z,16.23
2018-04-08T03:18:18.743Z,16.50
2018-04-08T03:20:52.721Z,15.93
2018-04-08T03:23:22.053Z,17.10
2018-04-08T03:25:52.618Z,16.54
2018-04-08T03:28:23.280Z,16.62
2018-04-08T03:30:52.986Z,16.62
2018-04-08T03:33:24.087Z,17.25
2018-04-08T03:35:59.441Z,15.50
2018-04-08T03:38:28.757Z,17.87
2018-04-08T03:40:58.199Z,16.50
2018-04-08T03:43:27.761Z,16.73
2018-04-08T03:45:58.168Z,17.80
2018-04-08T03:48:29.284Z,17.73
2018-04-08T03:51:00.311Z,16.67
2018-04-08T03:53:30.905Z,17.80
2018-04-08T03:56:02.127Z,16.48
2018-04-08T03:58:33.140Z,17.87
2018-04-08T04:01:03.815Z,18.75
2018-04-08T04:03:34.864Z,17.95
2018-04-08T04:06:05.809Z,17.10
2018-04-08T04:08:36.968Z,18.23
2018-04-08T04:11:06.711Z,16.60
2018-04-08T04:13:38.403Z,24.92
2018-04-08T04:16:08.963Z,23.77
2018-04-08T04:18:50.319Z,25.20
2018-04-08T04:21:30.920Z,24.80
2018-04-08T04:24:10.800Z,24.03
2018-04-08T04:26:39.953Z,21.40
2018-04-08T04:29:08.735Z,17.00
2018-04-08T04:31:37.564Z,15.00
2018-04-08T04:34:06.752Z,14.43
2018-04-08T04:36:35.622Z,13.47
2018-04-08T04:39:04.275Z,14.93
2018-04-08T04:41:33.728Z,14.48
2018-04-08T04:44:03.047Z,14.63
2018-04-08T04:46:32.271Z,15.20
2018-04-08T04:49:01.575Z,16.35
2018-04-08T04:51:31.080Z,15.30
2018-04-08T04:54:00.319Z,14.82
2018-04-08T04:56:29.455Z,14.77
2018-04-08T04:58:58.938Z,14.45
2018-04-08T05:01:28.030Z,13.27
2018-04-08T05:03:57.167Z,13.45
2018-04-08T05:06:27.183Z,14.02
2018-04-08T05:08:58.031Z,12.48
2018-04-08T05:11:28.787Z,13.50
2018-04-08T05:14:00.325Z,13.40
2018-04-08T05:16:30.903Z,14.05
2018-04-08T05:19:01.790Z,13.43
2018-04-08T05:21:32.884Z,13.70
2018-04-08T05:24:03.796Z,14.52
2018-04-08T05:26:35.410Z,15.28
2018-04-08T05:29:06.177Z,15.68
2018-04-08T05:31:37.375Z,14.85
2018-04-08T05:34:08.145Z,14.63
2018-04-08T05:36:39.125Z,14.63
2018-04-08T05:39:10.784Z,14.84
2018-04-08T05:41:41.820Z,16.30
2018-04-08T05:44:12.386Z,15.08
2018-04-08T05:46:42.220Z,13.55
2018-04-08T05:49:13.033Z,15.13
2018-04-08T05:51:44.139Z,13.30
2018-04-08T05:54:15.592Z,14.34
2018-04-08T05:56:46.528Z,14.24
2018-04-08T05:59:16.033Z,12.30
2018-04-08T06:01:46.821Z,12.35
2018-04-08T06:04:17.804Z,11.80
2018-04-08T06:06:48.185Z,11.85
2018-04-08T06:09:18.920Z,11.67
2018-04-08T06:11:48.833Z,11.00
2018-04-08T06:14:20.404Z,11.00
2018-04-08T06:16:52.377Z,12.08
2018-04-08T06:19:23.823Z,11.18
2018-04-08T06:21:53.367Z,11.23
2018-04-08T06:24:24.411Z,10.70
2018-04-08T06:26:55.965Z,11.04
2018-04-08T06:29:26.667Z,10.45
2018-04-08T06:31:57.493Z,9.13
2018-04-08T06:34:27.953Z,9.52
2018-04-08T06:36:58.741Z,10.77
2018-04-08T06:39:29.595Z,10.35
2018-04-08T06:42:00.145Z,9.90
2018-04-08T06:44:31.165Z,10.32
2018-04-08T06:47:06.996Z,11.06
2018-04-08T06:49:35.816Z,10.83
2018-04-08T06:52:05.498Z,10.75
2018-04-08T06:54:35.024Z,10.82
2018-04-08T06:57:09.113Z,11.16
2018-04-08T06:59:38.481Z,11.00
2018-04-08T07:02:09.086Z,11.60
2018-04-08T07:04:40.547Z,10.34
2018-04-08T07:07:09.540Z,10.80
2018-04-08T07:09:41.029Z,10.67
2018-04-08T07:12:09.837Z,12.10
2018-04-08T07:14:40.356Z,11.36
2018-04-08T07:17:11.176Z,10.77
2018-04-08T07:19:42.000Z,10.20
2018-04-08T07:22:12.632Z,10.45
2018-04-08T07:24:43.320Z,10.92
2018-04-08T07:27:15.321Z,10.05
2018-04-08T07:29:44.191Z,9.57
2018-04-08T07:32:14.915Z,9.52
2018-04-08T07:34:46.688Z,10.00
2018-04-08T07:37:17.393Z,7.92
2018-04-08T07:39:48.180Z,8.38
2018-04-08T07:42:17.610Z,8.63
2018-04-08T07:44:47.034Z,8.23
2018-04-08T07:47:17.509Z,7.20
2018-04-08T07:49:48.462Z,8.05
2018-04-08T07:52:17.506Z,7.27
2018-04-08T07:54:46.647Z,7.63
2018-04-08T07:57:15.763Z,8.30
2018-04-08T07:59:44.819Z,7.73
2018-04-08T08:02:14.072Z,7.90
2018-04-08T08:04:43.027Z,8.43
2018-04-08T08:07:12.103Z,7.50
2018-04-08T08:09:41.388Z,7.75
2018-04-08T08:12:10.307Z,5.87
2018-04-08T08:14:39.538Z,8.60
2018-04-08T08:17:08.855Z,8.60
2018-04-08T08:19:37.869Z,8.37
2018-04-08T08:22:07.083Z,7.83
2018-04-08T08:24:36.127Z,7.63
2018-04-08T08:27:05.142Z,7.97
2018-04-08T08:29:34.258Z,8.77
2018-04-08T08:32:03.222Z,8.63
2018-04-08T08:34:32.344Z,9.20
2018-04-08T08:37:01.550Z,8.20
2018-04-08T08:39:30.621Z,9.27
2018-04-08T08:42:00.376Z,8.73
2018-04-08T08:44:29.910Z,9.20
2018-04-08T08:46:59.057Z,8.67
2018-04-08T08:49:28.080Z,14.10
2018-04-08T08:51:57.306Z,9.80
2018-04-08T08:54:26.491Z,8.67
2018-04-08T08:56:55.508Z,7.73
2018-04-08T08:59:24.600Z,8.50
2018-04-08T09:01:53.661Z,7.73
2018-04-08T09:04:22.596Z,7.67
2018-04-08T09:06:51.902Z,7.43
2018-04-08T09:09:21.043Z,7.47
2018-04-08T09:11:49.988Z,9.10
2018-04-08T09:14:19.184Z,8.33
2018-04-08T09:16:48.150Z,7.67
2018-04-08T09:19:19.596Z,7.67
2018-04-08T09:21:51.109Z,8.07
2018-04-08T09:24:20.511Z,8.57
2018-04-08T09:26:49.691Z,6.80
2018-04-08T09:29:18.726Z,7.60
2018-04-08T09:31:47.851Z,9.40
2018-04-08T09:34:16.845Z,7.43
2018-04-08T09:36:46.165Z,7.13
2018-04-08T09:39:15.567Z,6.83
2018-04-08T09:41:44.762Z,6.90
2018-04-08T09:44:13.968Z,6.93
2018-04-08T09:46:43.247Z,6.83
2018-04-08T09:49:12.201Z,7.03
2018-04-08T09:51:41.180Z,7.00
2018-04-08T09:54:20.060Z,6.33
2018-04-08T11:00:34.118Z,6.53
2018-04-08T11:03:03.171Z,6.90
2018-04-08T11:05:32.168Z,6.60
2018-04-08T11:08:01.264Z,5.87
2018-04-08T11:10:30.538Z,6.40
2018-04-08T11:12:59.504Z,6.77
2018-04-08T11:15:28.866Z,6.87
2018-04-08T11:17:58.106Z,6.43
2018-04-08T11:20:26.908Z,6.20
2018-04-08T11:22:55.984Z,6.30
2018-04-08T11:25:24.802Z,7.03
2018-04-08T11:27:54.022Z,6.07
2018-04-08T11:30:23.063Z,6.33
2018-04-08T11:32:52.671Z,5.97
2018-04-08T11:35:21.962Z,5.73
2018-04-08T11:37:51.063Z,6.10
2018-04-08T11:40:20.020Z,5.77
2018-04-08T11:42:48.993Z,5.27
2018-04-08T11:45:17.925Z,5.30
2018-04-08T11:47:46.902Z,5.60
2018-04-08T11:50:15.707Z,5.07
2018-04-08T11:52:44.801Z,5.70
2018-04-08T11:55:13.767Z,4.87
2018-04-08T11:57:42.814Z,5.20
2018-04-08T12:00:13.835Z,4.90
2018-04-08T12:02:42.738Z,4.47
2018-04-08T12:05:12.063Z,4.80
2018-04-08T12:07:41.410Z,4.10
2018-04-08T12:10:10.486Z,5.00
2018-04-08T12:12:39.692Z,4.30
2018-04-08T12:15:08.777Z,50.73
2018-04-08T12:17:37.743Z,414.50
2018-04-08T12:20:06.992Z,246.47
2018-04-08T12:22:35.853Z,182.10
2018-04-08T12:25:06.112Z,79.50
2018-04-08T12:27:34.911Z,16.30
2018-04-08T12:30:03.779Z,14.27
2018-04-08T12:32:32.659Z,22.63
2018-04-08T12:35:01.655Z,39.27
2018-04-08T12:37:30.632Z,24.23
2018-04-08T12:39:59.675Z,52.30
2018-04-08T12:42:28.676Z,34.50
2018-04-08T12:44:57.875Z,49.37
2018-04-08T12:47:26.857Z,148.03
2018-04-08T12:49:55.641Z,107.33
2018-04-08T12:52:24.680Z,44.00
2018-04-08T12:54:54.038Z,78.97
2018-04-08T12:57:23.228Z,32.53
2018-04-08T12:59:52.533Z,36.10
2018-04-08T13:02:21.588Z,10.90
2018-04-08T13:04:50.555Z,9.27
2018-04-08T13:07:19.957Z,12.50
2018-04-08T13:09:48.975Z,32.73
2018-04-08T13:12:17.772Z,37.67
2018-04-08T13:14:47.029Z,28.43
2018-04-08T13:17:16.183Z,59.57
2018-04-08T13:19:45.268Z,203.32
2018-04-08T13:22:14.607Z,382.08
2018-04-08T13:24:43.905Z,323.15
2018-04-08T13:27:12.908Z,185.07
2018-04-08T13:29:42.074Z,88.03
2018-04-08T13:32:11.047Z,133.37
2018-04-08T13:34:40.351Z,191.18
2018-04-08T13:37:09.415Z,240.57
2018-04-08T13:39:38.805Z,306.93
2018-04-08T13:42:08.038Z,140.03
2018-04-08T13:44:37.530Z,86.22
2018-04-08T13:47:06.592Z,30.67
2018-04-08T13:49:35.590Z,12.50
2018-04-08T13:52:04.664Z,14.98
2018-04-08T13:54:35.302Z,378.83
